Time;durP1;ratioP1;P1;durP2;ratioP2;P2;SDS_P1;SDS_P2;PMS_P1;PMS_P2;Temp;Humidity;BMP_temperature;BMP_pressure;BME280_temperature;BME280_humidity;BME280_pressure;Samples;Min_cycle;Max_cycle;Signal;HPM_P1;HPM_P2
2023/04/04 00:00:54;;;;;;;2.33;1.88;;;0.80;99.90;;;;;;5020255;28;20268;-85
2023/04/04 00:03:21;;;;;;;3.03;2.22;;;1.00;99.90;;;;;;5019990;28;20229;-85
2023/04/04 00:05:48;;;;;;;4.82;2.50;;;1.00;99.90;;;;;;5020780;28;20243;-85
2023/04/04 00:08:16;;;;;;;11.23;2.50;;;1.10;99.90;;;;;;5019503;28;20205;-85
2023/04/04 00:10:43;;;;;;;3.42;2.20;;;1.20;99.90;;;;;;5029403;28;20232;-86
2023/04/04 00:13:12;;;;;;;2.05;1.92;;;1.10;1.00;;;;;;5034316;28;20263;-86
2023/04/04 00:15:39;;;;;;;3.08;2.25;;;0.80;99.90;;;;;;5025729;28;20209;-85
2023/04/04 00:18:05;;;;;;;2.75;1.90;;;0.80;99.90;;;;;;5020294;28;20264;-85
2023/04/04 00:20:32;;;;;;;2.25;2.05;;;1.10;99.90;;;;;;5020282;28;20230;-85
2023/04/04 00:22:59;;;;;;;3.78;2.80;;;1.00;99.90;;;;;;5019827;28;20320;-86
2023/04/04 00:25:27;;;;;;;3.58;2.35;;;1.20;99.90;;;;;;5019089;28;20200;-85
2023/04/04 00:27:55;;;;;;;3.97;2.22;;;1.20;1.00;;;;;;5018107;28;20387;-86
2023/04/04 00:30:21;;;;;;;4.50;2.25;;;1.20;99.90;;;;;;5019510;28;20231;-86
2023/04/04 00:32:48;;;;;;;4.63;2.30;;;1.00;99.90;;;;;;5025570;28;20657;-85
2023/04/04 00:35:15;;;;;;;2.63;1.77;;;1.30;99.90;;;;;;5029990;28;20272;-85
2023/04/04 00:37:42;;;;;;;2.50;2.30;;;;;;;;;;5026234;28;20216;-85
2023/04/04 00:40:09;;;;;;;2.00;1.90;;;1.50;1.00;;;;;;5036209;28;20232;-84
2023/04/04 00:42:38;;;;;;;9.05;2.70;;;1.00;99.90;;;;;;5038817;28;20232;-85
2023/04/04 00:45:06;;;;;;;3.08;1.90;;;0.70;99.90;;;;;;5038783;28;20264;-84
2023/04/04 00:47:34;;;;;;;5.63;2.10;;;1.00;99.90;;;;;;5035728;28;20209;-85
2023/04/04 00:50:02;;;;;;;3.50;2.53;;;0.30;11.20;;;;;;5022319;28;20574;-86
2023/04/04 00:52:28;;;;;;;3.97;2.30;;;0.50;1.00;;;;;;5019131;28;20224;-85
2023/04/04 00:54:56;;;;;;;3.28;1.80;;;1.00;99.90;;;;;;5022330;28;20240;-86
2023/04/04 00:57:23;;;;;;;2.60;2.35;;;0.70;99.90;;;;;;5021906;28;20204;-85
2023/04/04 00:59:52;;;;;;;2.95;2.38;;;1.10;99.90;;;;;;5017180;28;20208;-84
2023/04/04 01:02:19;;;;;;;2.00;1.90;;;0.80;1.00;;;;;;5016712;28;20232;-84
2023/04/04 01:04:46;;;;;;;4.18;1.88;;;1.10;99.90;;;;;;5016613;28;20296;-84
2023/04/04 01:07:13;;;;;;;3.38;2.15;;;0.80;99.90;;;;;;5016660;28;20212;-84
2023/04/04 01:09:40;;;;;;;3.20;2.00;;;1.00;99.90;;;;;;5033515;28;20219;-84
2023/04/04 01:12:08;;;;;;;7.43;2.58;;;0.90;99.90;;;;;;5035795;28;20229;-84
2023/04/04 01:14:34;;;;;;;5.45;2.22;;;0.50;99.90;;;;;;5036477;28;20300;-84
2023/04/04 01:17:03;;;;;;;2.83;2.20;;;0.60;1.00;;;;;;5036306;28;20231;-84
2023/04/04 01:19:34;;;;;;;3.03;2.40;;;0.80;1.00;;;;;;5026769;28;20208;-84
2023/04/04 01:22:02;;;;;;;3.83;2.30;;;0.90;1.00;;;;;;5019602;28;20245;-84
2023/04/04 01:24:33;;;;;;;3.60;2.17;;;0.80;99.90;;;;;;5021642;28;20207;-84
2023/04/04 01:27:02;;;;;;;3.72;2.42;;;0.40;99.90;;;;;;5031613;28;20184;-83
2023/04/04 01:29:29;;;;;;;4.05;2.50;;;0.40;99.90;;;;;;5017517;28;20679;-83
2023/04/04 01:31:59;;;;;;;3.60;2.30;;;0.80;1.00;;;;;;5016631;28;20253;-84
2023/04/04 01:34:32;;;;;;;1.70;1.60;;;0.20;99.90;;;;;;5016396;28;20691;-84
2023/04/04 01:37:06;;;;;;;5.55;2.42;;;0.80;1.00;;;;;;5020174;28;20196;-85
2023/04/04 01:39:39;;;;;;;2.97;2.45;;;0.60;99.90;;;;;;5034604;28;20215;-85
2023/04/04 01:42:09;;;;;;;3.47;2.28;;;0.70;1.00;;;;;;5027082;28;20224;-84
2023/04/04 01:44:36;;;;;;;5.50;2.22;;;0.50;99.90;;;;;;5015929;28;20252;-84
2023/04/04 01:47:07;;;;;;;5.72;1.70;;;0.50;99.90;;;;;;5015883;28;20204;-84
2023/04/04 01:49:34;;;;;;;2.15;1.95;;;0.30;1.00;;;;;;5015702;28;20195;-84
2023/04/04 01:52:02;;;;;;;7.32;2.95;;;0.70;99.90;;;;;;5031430;28;20212;-84
2023/04/04 01:54:28;;;;;;;6.88;2.50;;;0.60;1.00;;;;;;5037149;28;20223;-84
2023/04/04 01:56:56;;;;;;;5.03;2.40;;;0.10;1.00;;;;;;5037321;28;20223;-84
2023/04/04 01:59:25;;;;;;;2.33;2.03;;;0.50;99.90;;;;;;5019864;28;20663;-84
2023/04/04 02:01:51;;;;;;;2.50;2.10;;;0.30;1.00;;;;;;5019320;28;20236;-84
2023/04/04 02:04:18;;;;;;;4.57;1.80;;;0.60;99.90;;;;;;5018862;28;20184;-84
2023/04/04 02:06:46;;;;;;;2.90;2.00;;;1.00;1.00;;;;;;5019321;28;20220;-84
2023/04/04 02:09:12;;;;;;;6.60;2.50;;;0.70;1.00;;;;;;5023468;28;20212;-85
2023/04/04 02:11:39;;;;;;;4.93;2.25;;;0.10;1.00;;;;;;5029299;28;20200;-85
2023/04/04 02:14:06;;;;;;;2.80;2.38;;;0.30;1.00;;;;;;5029629;28;20248;-85
2023/04/04 02:16:34;;;;;;;4.93;2.22;;;0.40;1.00;;;;;;5032440;28;20213;-84
2023/04/04 02:19:01;;;;;;;3.92;2.83;;;0.20;1.00;;;;;;5038845;28;20228;-84
2023/04/04 02:21:28;;;;;;;5.57;2.75;;;0.10;1.00;;;;;;5041571;28;20187;-83
2023/04/04 02:23:55;;;;;;;3.05;1.80;;;0.20;1.00;;;;;;5042266;28;20212;-83
2023/04/04 02:26:22;;;;;;;4.70;1.95;;;0.50;99.90;;;;;;5041875;28;20252;-84
2023/04/04 02:28:49;;;;;;;3.17;2.58;;;0.20;1.00;;;;;;5041844;28;20244;-84
2023/04/04 02:31:16;;;;;;;5.20;2.47;;;0.50;1.00;;;;;;5040140;28;20235;-83
2023/04/04 02:33:44;;;;;;;6.22;3.30;;;0.30;1.00;;;;;;5040305;28;20233;-83
2023/04/04 02:36:11;;;;;;;3.83;2.70;;;0.60;1.00;;;;;;5040638;28;20204;-84
2023/04/04 02:38:38;;;;;;;5.40;2.67;;;0.30;1.00;;;;;;5040661;28;20223;-84
2023/04/04 02:41:05;;;;;;;3.97;2.70;;;0.50;1.00;;;;;;5026155;28;20209;-85
2023/04/04 02:43:32;;;;;;;3.00;2.70;;;0.20;1.00;;;;;;5020745;28;20688;-85
2023/04/04 02:45:59;;;;;;;3.20;2.55;;;0.20;1.00;;;;;;5020510;28;20205;-85
2023/04/04 02:48:26;;;;;;;6.40;2.70;;;0.10;1.00;;;;;;5019678;28;20605;-85
2023/04/04 02:50:54;;;;;;;4.60;2.90;;;0.30;1.00;;;;;;5018692;28;20210;-85
2023/04/04 02:53:21;;;;;;;3.97;2.33;;;0.00;1.00;;;;;;5017930;28;20312;-85
2023/04/04 02:55:48;;;;;;;6.45;2.95;;;0.00;1.00;;;;;;5018308;28;20231;-85
2023/04/04 02:58:15;;;;;;;5.80;3.28;;;0.40;1.00;;;;;;5019179;28;20211;-85
2023/04/04 03:00:41;;;;;;;4.90;2.10;;;0.50;1.00;;;;;;5024575;28;20211;-85
2023/04/04 03:03:08;;;;;;;4.47;2.90;;;0.30;1.50;;;;;;5039014;28;20300;-84
2023/04/04 03:05:35;;;;;;;4.72;2.90;;;-0.10;1.00;;;;;;5031648;28;20295;-84
2023/04/04 03:08:03;;;;;;;4.18;2.53;;;0.50;1.00;;;;;;5019590;28;20205;-84
2023/04/04 03:10:31;;;;;;;7.90;3.35;;;0.50;1.00;;;;;;5018014;28;20225;-85
2023/04/04 03:12:58;;;;;;;7.85;3.40;;;0.10;1.00;;;;;;5017731;28;20224;-85
2023/04/04 03:15:25;;;;;;;3.88;2.40;;;;;;;;;;5018287;28;20225;-85
2023/04/04 03:17:53;;;;;;;5.50;2.53;;;0.40;1.00;;;;;;5018434;28;20209;-84
2023/04/04 03:20:20;;;;;;;4.82;3.08;;;0.10;1.00;;;;;;5019778;28;20213;-85
2023/04/04 03:22:48;;;;;;;4.07;2.60;;;0.00;1.00;;;;;;5019254;28;20268;-85
2023/04/04 03:25:16;;;;;;;6.22;2.92;;;0.30;1.00;;;;;;5019180;28;20201;-85
2023/04/04 03:27:43;;;;;;;11.68;3.47;;;0.40;1.00;;;;;;5019590;28;20208;-85
2023/04/04 03:30:11;;;;;;;3.03;2.70;;;0.10;99.90;;;;;;5019475;28;20295;-85
2023/04/04 03:32:39;;;;;;;7.45;3.38;;;-0.10;1.00;;;;;;5020074;28;20279;-85
2023/04/04 03:35:06;;;;;;;8.63;2.88;;;0.20;1.00;;;;;;5020018;28;20275;-85
2023/04/04 03:37:34;;;;;;;8.30;3.75;;;-0.20;21.30;;;;;;5020168;28;20212;-85
2023/04/04 03:40:01;;;;;;;4.88;3.42;;;0.40;4.30;;;;;;5020412;28;20204;-85
2023/04/04 03:42:33;;;;;;;5.85;3.60;;;0.30;1.00;;;;;;5019278;28;20323;-85
2023/04/04 03:45:00;;;;;;;3.53;3.20;;;0.10;1.00;;;;;;5021724;28;20279;-85
2023/04/04 03:47:27;;;;;;;3.88;3.13;;;-0.30;91.30;;;;;;5025449;28;20212;-85
2023/04/04 03:49:54;;;;;;;3.05;2.72;;;-0.40;1.00;;;;;;5020935;28;20272;-85
2023/04/04 03:52:21;;;;;;;9.05;3.17;;;0.10;1.00;;;;;;5026619;28;20224;-84
2023/04/04 03:54:48;;;;;;;4.43;3.15;;;0.20;1.00;;;;;;5036024;28;20228;-84
2023/04/04 03:57:15;;;;;;;12.65;3.70;;;-0.30;49.40;;;;;;5038577;28;20269;-84
2023/04/04 03:59:43;;;;;;;4.35;2.80;;;-0.70;57.70;;;;;;5036218;28;20271;-84
2023/04/04 04:02:10;;;;;;;9.70;4.30;;;-0.20;1.00;;;;;;5022291;28;20296;-84
2023/04/04 04:04:37;;;;;;;4.50;4.10;;;;;;;;;;5020271;28;20250;-85
2023/04/04 04:07:04;;;;;;;8.80;3.60;;;-0.20;75.90;;;;;;5019949;28;20238;-85
2023/04/04 04:09:31;;;;;;;5.60;3.25;;;-0.30;1.00;;;;;;5017702;28;20470;-85
2023/04/04 04:11:58;;;;;;;8.73;3.53;;;0.30;1.00;;;;;;5018306;28;20536;-85
2023/04/04 04:14:30;;;;;;;3.22;2.90;;;-0.20;1.00;;;;;;5018652;28;20221;-86
2023/04/04 04:16:58;;;;;;;5.80;4.30;;;;;;;;;;5020337;28;20201;-84
2023/04/04 04:19:25;;;;;;;4.20;3.65;;;-0.30;1.00;;;;;;5019706;28;20679;-85
2023/04/04 04:21:52;;;;;;;4.32;2.83;;;0.10;1.00;;;;;;5018446;28;20711;-85
2023/04/04 04:24:19;;;;;;;5.18;3.08;;;-0.40;1.00;;;;;;5021125;28;20231;-85
2023/04/04 04:26:52;;;;;;;3.22;3.03;;;;;;;;;;5034189;28;20204;-87
2023/04/04 04:29:19;;;;;;;3.78;3.05;;;0.00;76.40;;;;;;5034772;28;20204;-86
2023/04/04 04:31:46;;;;;;;4.35;2.60;;;-0.30;1.00;;;;;;5033453;28;20203;-85
2023/04/04 04:34:14;;;;;;;3.03;2.72;;;;;;;;;;5030213;28;20208;-84
2023/04/04 04:36:41;;;;;;;3.30;3.00;;;-0.10;9.90;;;;;;5025292;28;20201;-86
2023/04/04 04:39:08;;;;;;;5.78;3.17;;;-0.40;99.90;;;;;;5032938;28;20273;-84
2023/04/04 04:41:35;;;;;;;3.47;2.67;;;-0.40;9.30;;;;;;5038165;28;20209;-84
2023/04/04 04:44:02;;;;;;;6.13;2.47;;;0.00;99.90;;;;;;5038119;28;20189;-84
2023/04/04 04:46:29;;;;;;;5.85;3.47;;;-0.50;1.00;;;;;;5039054;28;20201;-84
2023/04/04 04:48:56;;;;;;;4.80;3.08;;;-0.20;99.90;;;;;;5038922;28;20323;-85
2023/04/04 04:51:25;;;;;;;6.75;3.10;;;;;;;;;;5027789;28;20288;-84
2023/04/04 04:53:52;;;;;;;7.03;3.30;;;;;;;;;;5024628;28;20312;-85
2023/04/04 04:56:19;;;;;;;4.82;3.00;;;;;;;;;;5025796;28;20275;-85
2023/04/04 04:58:47;;;;;;;8.35;3.30;;;;;;;;;;5037713;28;20207;-84
2023/04/04 05:01:14;;;;;;;5.43;3.25;;;;;;;;;;5028926;28;20216;-85
2023/04/04 05:03:42;;;;;;;4.75;3.30;;;;;;;;;;5027992;28;20292;-84
2023/04/04 05:06:08;;;;;;;4.90;3.25;;;-0.50;22.90;;;;;;5029199;28;20264;-84
2023/04/04 05:08:36;;;;;;;5.05;4.32;;;-0.10;1.00;;;;;;5020905;28;20211;-84
2023/04/04 05:11:03;;;;;;;7.07;3.35;;;0.00;1.00;;;;;;5020415;28;20235;-84
2023/04/04 05:13:30;;;;;;;8.52;4.10;;;-0.10;1.00;;;;;;5017941;28;20247;-84
2023/04/04 05:15:58;;;;;;;11.50;3.17;;;0.40;1.00;;;;;;5017336;28;20227;-84
2023/04/04 05:18:26;;;;;;;9.45;4.53;;;0.00;73.40;;;;;;5016769;28;20202;-84
2023/04/04 05:20:54;;;;;;;10.07;3.53;;;-0.20;8.30;;;;;;5017705;28;20240;-84
2023/04/04 05:23:21;;;;;;;3.67;3.13;;;0.00;46.30;;;;;;5016684;28;20224;-85
2023/04/04 05:25:52;;;;;;;7.15;2.80;;;0.00;1.00;;;;;;5022092;28;20243;-85
2023/04/04 05:28:19;;;;;;;6.28;3.40;;;0.40;1.00;;;;;;5016792;28;20243;-85
2023/04/04 05:30:45;;;;;;;6.35;3.33;;;0.30;1.00;;;;;;5017217;28;20603;-85
2023/04/04 05:33:12;;;;;;;5.30;4.05;;;-0.10;1.00;;;;;;5015789;28;20212;-84
2023/04/04 05:35:40;;;;;;;6.90;3.90;;;-0.80;1.00;;;;;;5016662;28;20249;-84
2023/04/04 05:38:07;;;;;;;6.30;3.90;;;;;;;;;;5017850;28;20227;-84
2023/04/04 05:40:34;;;;;;;5.70;3.30;;;0.50;1.00;;;;;;5017534;28;20219;-84
2023/04/04 05:43:03;;;;;;;6.80;3.45;;;0.10;1.00;;;;;;5016905;28;20262;-85
2023/04/04 05:45:30;;;;;;;9.73;3.58;;;0.20;1.00;;;;;;5016148;28;20314;-85
2023/04/04 05:47:57;;;;;;;3.95;3.58;;;0.50;1.00;;;;;;5016372;28;20212;-85
2023/04/04 05:50:24;;;;;;;7.60;3.47;;;0.40;1.00;;;;;;5016925;28;20212;-84
2023/04/04 05:52:54;;;;;;;4.15;3.75;;;0.80;1.00;;;;;;5037643;28;20224;-84
2023/04/04 05:55:21;;;;;;;8.38;3.28;;;0.80;1.00;;;;;;5035625;28;20208;-85
2023/04/04 05:57:49;;;;;;;3.33;2.90;;;1.00;99.90;;;;;;5037631;28;20242;-85
2023/04/04 06:00:19;;;;;;;4.63;3.35;;;0.40;1.00;;;;;;5031348;28;20211;-85
2023/04/04 06:02:46;;;;;;;5.38;3.30;;;-0.50;1.00;;;;;;5024934;28;20236;-85
2023/04/04 06:05:12;;;;;;;9.40;3.90;;;0.70;1.00;;;;;;5024462;28;20231;-85
2023/04/04 06:07:39;;;;;;;3.13;2.90;;;0.90;1.00;;;;;;5025595;28;20228;-86
2023/04/04 06:10:08;;;;;;;7.05;3.13;;;1.10;1.00;;;;;;5023562;28;20209;-85
2023/04/04 06:12:34;;;;;;;2.42;2.20;;;1.10;1.00;;;;;;5026570;28;20241;-85
2023/04/04 06:15:01;;;;;;;5.10;2.50;;;0.60;1.00;;;;;;5022854;28;20698;-85
2023/04/04 06:17:30;;;;;;;3.97;2.70;;;0.80;99.90;;;;;;5032435;28;20272;-85
2023/04/04 06:19:56;;;;;;;9.43;3.38;;;1.00;99.90;;;;;;5033351;28;20200;-84
2023/04/04 06:22:23;;;;;;;7.78;3.90;;;;;;;;;;5035024;28;20224;-85
2023/04/04 06:24:50;;;;;;;8.10;2.70;;;1.20;99.90;;;;;;5033976;28;20634;-85
2023/04/04 06:27:17;;;;;;;3.13;2.70;;;1.10;99.90;;;;;;5021233;28;20590;-85
2023/04/04 06:29:44;;;;;;;5.65;3.50;;;1.50;99.90;;;;;;5019606;28;20527;-85
2023/04/04 06:32:11;;;;;;;10.00;3.20;;;1.20;99.90;;;;;;5018059;28;20224;-85
2023/04/04 06:34:39;;;;;;;7.60;4.10;;;1.20;99.90;;;;;;5019006;28;20717;-86
2023/04/04 06:37:06;;;;;;;5.72;3.58;;;1.60;99.90;;;;;;5026043;28;20209;-83
2023/04/04 06:39:33;;;;;;;5.85;2.88;;;1.70;99.90;;;;;;5023335;28;20232;-85
2023/04/04 06:42:00;;;;;;;5.25;3.38;;;1.50;99.90;;;;;;5019128;28;20317;-84
2023/04/04 06:44:27;;;;;;;5.70;2.70;;;1.70;99.90;;;;;;5024869;28;20208;-85
2023/04/04 06:46:54;;;;;;;4.72;3.30;;;1.70;99.90;;;;;;5029311;28;20195;-83
2023/04/04 06:49:21;;;;;;;6.07;2.58;;;0.90;1.00;;;;;;5032311;28;20555;-85
2023/04/04 06:51:51;;;;;;;4.50;2.22;;;2.00;99.90;;;;;;5022117;28;20288;-84
2023/04/04 06:54:18;;;;;;;8.43;2.95;;;2.40;99.90;;;;;;5022726;28;20367;-84
2023/04/04 06:56:45;;;;;;;4.15;2.60;;;2.20;99.90;;;;;;5020843;28;20225;-85
2023/04/04 06:59:12;;;;;;;5.13;2.70;;;2.10;99.90;;;;;;5021332;28;20205;-85
2023/04/04 07:01:39;;;;;;;3.72;2.50;;;;;;;;;;5022376;28;20301;-85
2023/04/04 07:04:06;;;;;;;7.25;2.60;;;1.70;99.90;;;;;;5022309;28;20185;-85
2023/04/04 07:06:33;;;;;;;4.70;2.75;;;1.50;40.20;;;;;;5025204;28;20288;-86
2023/04/04 07:09:02;;;;;;;5.20;2.20;;;2.20;99.90;;;;;;5040139;28;20220;-84
2023/04/04 07:43:52;;;;;;;3.28;1.50;;;;;;;;;;6151774;22;20213;-90
2023/04/04 07:46:20;;;;;;;5.38;2.08;;;;;;;;;;6313942;22;20148;-89
2023/04/04 07:57:50;;;;;;;;;;;;;;;;;;;;;
2023/04/04 08:00:35;;;;;;;6.50;2.47;;;;;;;;;;6288244;22;20228;-88
2023/04/04 08:06:09;;;;;;;2.03;1.83;;;;;;;;;;6296532;22;20176;-89
2023/04/04 08:12:56;;;;;;;5.05;2.63;;;3.10;1.00;;;;;;6263382;22;20179;-88
2023/04/04 08:23:24;;;;;;;2.45;1.92;;;;;;;;;;6269645;22;20187;-92
2023/04/04 08:26:04;;;;;;;2.78;1.60;;;;;;;;;;6305471;22;20231;-89
2023/04/04 08:28:36;;;;;;;2.15;1.95;;;;;;;;;;6306382;22;20150;-90
2023/04/04 08:33:52;;;;;;;4.10;3.20;;;;;;;;;;6285413;22;20199;-90
2023/04/04 08:36:28;;;;;;;4.68;2.50;;;;;;;;;;6305869;22;20160;-89
2023/04/04 08:39:20;;;;;;;2.05;1.95;;;;;;;;;;6299768;22;20165;-89
2023/04/04 08:48:34;;;;;;;2.70;2.50;;;3.60;99.90;;;;;;6284761;22;20169;-90
2023/04/04 08:51:14;;;;;;;6.13;2.25;;;3.60;99.90;;;;;;6288460;22;20184;-89
2023/04/04 08:53:45;;;;;;;3.88;2.25;;;;;;;;;;6289198;22;20210;-88
2023/04/04 08:56:33;;;;;;;4.00;2.97;;;;;;;;;;6266364;22;20504;-89
2023/04/04 08:59:21;;;;;;;4.80;1.90;;;;;;;;;;6291224;22;20195;-89
2023/04/04 09:08:15;;;;;;;1.90;1.70;;;;;;;;;;6293954;22;20200;-87
2023/04/04 09:10:49;;;;;;;3.97;2.20;;;;;;;;;;6291787;22;20166;-88
2023/04/04 09:13:39;;;;;;;3.28;1.90;;;;;;;;;;6289978;22;20275;-88
2023/04/04 09:16:20;;;;;;;2.22;1.35;;;;;;;;;;6292681;22;20242;-89
2023/04/04 09:21:48;;;;;;;2.40;1.90;;;;;;;;;;6290269;22;20231;-88
2023/04/04 09:27:00;;;;;;;3.17;1.50;;;;;;;;;;6284745;22;20171;-90
2023/04/04 09:29:37;;;;;;;1.92;1.63;;;;;;;;;;6296148;22;20181;-90
2023/04/04 09:35:17;;;;;;;;;;;;;;;;;;;;;
2023/04/04 09:37:57;;;;;;;5.68;2.00;;;;;;;;;;6232548;23;20179;-89
2023/04/04 09:40:28;;;;;;;2.70;1.80;;;;;;;;;;6231500;23;20178;-89
2023/04/04 09:43:03;;;;;;;2.95;2.15;;;;;;;;;;6240132;23;20197;-89
2023/04/04 09:45:33;;;;;;;3.47;2.03;;;;;;;;;;6265347;22;20203;-85
2023/04/04 09:47:59;;;;;;;2.13;1.70;;;4.60;17.40;;;;;;6288453;22;20181;-86
2023/04/04 09:50:27;;;;;;;1.95;1.60;;;4.30;16.50;;;;;;6286336;22;20255;-86
2023/04/04 09:52:57;;;;;;;2.35;1.60;;;4.30;13.70;;;;;;6286363;22;20199;-86
2023/04/04 09:55:32;;;;;;;2.47;2.25;;;4.50;99.90;;;;;;6286254;22;20219;-86
2023/04/04 09:58:01;;;;;;;6.00;3.20;;;4.60;1.00;;;;;;6285528;22;20165;-84
2023/04/04 10:00:29;;;;;;;4.13;2.60;;;5.00;1.00;;;;;;6295637;22;20190;-86
2023/04/04 10:03:02;;;;;;;3.70;1.95;;;5.20;1.00;;;;;;6294063;22;20174;-85
2023/04/04 10:05:29;;;;;;;5.43;2.05;;;5.00;1.00;;;;;;6286876;22;20230;-86
2023/04/04 10:07:58;;;;;;;3.63;1.95;;;5.20;99.90;;;;;;6293438;22;20193;-86
2023/04/04 10:10:27;;;;;;;4.75;1.83;;;5.10;13.60;;;;;;6296736;22;20205;-85
2023/04/04 10:12:57;;;;;;;2.55;2.05;;;5.10;99.90;;;;;;6290441;22;20284;-86
2023/04/04 10:15:24;;;;;;;2.60;2.40;;;4.80;19.40;;;;;;6286452;22;20204;-86
2023/04/04 10:17:54;;;;;;;3.55;2.00;;;5.10;1.00;;;;;;6303569;22;20180;-86
2023/04/04 10:20:22;;;;;;;2.33;1.65;;;4.70;1.00;;;;;;6302778;22;20162;-87
2023/04/04 10:22:50;;;;;;;2.20;1.88;;;5.00;1.00;;;;;;6286199;22;20178;-83
2023/04/04 10:25:18;;;;;;;2.88;2.25;;;5.20;99.90;;;;;;6285826;22;20296;-85
2023/04/04 10:27:45;;;;;;;2.50;2.28;;;5.60;1.00;;;;;;6286553;22;20624;-86
2023/04/04 10:30:13;;;;;;;1.40;1.30;;;5.70;1.00;;;;;;6287590;22;20557;-86
2023/04/04 10:32:50;;;;;;;5.22;2.25;;;5.90;1.00;;;;;;6291892;22;20206;-86
2023/04/04 10:35:21;;;;;;;1.85;1.73;;;5.90;1.00;;;;;;6291146;22;20208;-86
2023/04/04 10:37:57;;;;;;;4.20;1.80;;;6.10;99.90;;;;;;6289370;22;20169;-85
2023/04/04 10:40:27;;;;;;;2.10;1.90;;;5.90;1.00;;;;;;6293432;22;20171;-85
2023/04/04 10:42:56;;;;;;;2.03;1.42;;;5.80;1.00;;;;;;6291471;22;20234;-87
2023/04/04 10:45:25;;;;;;;4.03;3.63;;;5.90;1.00;;;;;;6284951;22;20212;-86
2023/04/04 10:47:53;;;;;;;3.55;2.00;;;5.90;1.00;;;;;;6284976;22;20177;-86
2023/04/04 10:50:20;;;;;;;3.20;1.88;;;5.50;1.00;;;;;;6283471;22;20179;-86
2023/04/04 10:52:48;;;;;;;7.25;2.30;;;5.50;1.00;;;;;;6285685;22;20253;-87
2023/04/04 10:55:16;;;;;;;10.48;2.30;;;5.20;1.00;;;;;;6286410;22;20593;-87
2023/04/04 10:57:50;;;;;;;4.00;2.65;;;5.30;6.70;;;;;;6286015;22;20227;-85
2023/04/04 11:00:22;;;;;;;5.32;3.13;;;5.30;99.90;;;;;;6289795;22;20164;-84
2023/04/04 11:02:53;;;;;;;1.40;1.30;;;5.70;99.90;;;;;;6289215;22;20165;-84
2023/04/04 11:05:23;;;;;;;2.40;1.85;;;6.10;1.00;;;;;;6283965;22;20281;-86
2023/04/04 11:07:57;;;;;;;1.38;1.25;;;5.50;1.00;;;;;;6286004;22;20227;-85
2023/04/04 11:10:28;;;;;;;2.15;1.85;;;5.40;1.00;;;;;;6285589;22;20171;-84
2023/04/04 11:12:56;;;;;;;5.68;1.27;;;6.10;1.00;;;;;;6283125;22;20163;-85
2023/04/04 11:15:24;;;;;;;2.00;1.27;;;6.40;1.00;;;;;;6286756;22;20196;-85
2023/04/04 11:17:57;;;;;;;10.25;3.80;;;5.90;1.00;;;;;;6293549;22;20179;-86
2023/04/04 11:20:29;;;;;;;1.80;1.70;;;6.00;1.00;;;;;;6294449;22;20188;-85
2023/04/04 11:23:07;;;;;;;1.45;1.30;;;6.40;1.00;;;;;;6287491;22;20165;-86
2023/04/04 11:25:37;;;;;;;7.05;1.98;;;;;;;;;;6285798;22;20227;-86
2023/04/04 11:28:09;;;;;;;13.27;2.08;;;6.60;1.00;;;;;;6285824;22;20181;-86
2023/04/04 11:30:43;;;;;;;1.30;1.20;;;6.20;1.00;;;;;;6287821;22;20497;-85
2023/04/04 11:33:13;;;;;;;1.67;1.33;;;6.20;99.90;;;;;;6292911;22;20178;-84
2023/04/04 11:35:41;;;;;;;2.42;1.55;;;;;;;;;;6285738;22;20201;-85
2023/04/04 11:38:15;;;;;;;4.30;1.60;;;6.50;1.00;;;;;;6286571;22;20233;-86
2023/04/04 11:40:53;;;;;;;3.08;1.25;;;6.10;1.00;;;;;;6288335;22;20181;-85
2023/04/04 11:43:21;;;;;;;1.83;1.45;;;;;;;;;;6289987;22;20186;-86
2023/04/04 11:45:48;;;;;;;2.22;1.73;;;;;;;;;;6285158;22;20205;-87
2023/04/04 11:48:17;;;;;;;4.53;1.38;;;6.60;1.00;;;;;;6286737;22;20175;-86
2023/04/04 11:50:50;;;;;;;1.40;1.08;;;6.50;1.00;;;;;;6286352;22;20233;-85
2023/04/04 11:53:17;;;;;;;1.50;1.40;;;6.50;99.90;;;;;;6285235;22;20193;-86
2023/04/04 11:55:55;;;;;;;1.95;1.75;;;6.70;1.00;;;;;;6284464;22;20228;-86
2023/04/04 11:58:23;;;;;;;2.05;1.35;;;6.30;1.00;;;;;;6295746;22;20148;-83
2023/04/04 12:00:50;;;;;;;3.38;2.38;;;;;;;;;;6306640;22;20223;-82
2023/04/04 12:03:17;;;;;;;4.85;3.10;;;;;;;;;;6306656;22;20180;-83
2023/04/04 12:05:45;;;;;;;1.70;1.60;;;6.90;1.00;;;;;;6306719;22;20178;-83
2023/04/04 12:08:12;;;;;;;3.33;2.33;;;6.60;1.00;;;;;;6303445;22;20166;-84
2023/04/04 12:10:40;;;;;;;1.67;1.58;;;7.00;1.00;;;;;;6299792;22;20179;-87
2023/04/04 12:13:10;;;;;;;3.15;1.60;;;7.70;1.00;;;;;;6289452;22;20182;-86
2023/04/04 12:15:37;;;;;;;2.15;1.70;;;;;;;;;;6286037;22;20261;-85
2023/04/04 12:18:07;;;;;;;2.78;1.35;;;7.40;99.90;;;;;;6290689;22;20181;-85
2023/04/04 12:20:37;;;;;;;6.97;1.80;;;6.90;1.00;;;;;;6290830;22;20171;-86
2023/04/04 12:23:04;;;;;;;1.90;1.67;;;6.40;1.00;;;;;;6295618;22;20173;-86
2023/04/04 12:25:32;;;;;;;5.03;1.80;;;;;;;;;;6297323;22;20242;-86
2023/04/04 12:28:00;;;;;;;1.40;1.30;;;6.70;1.00;;;;;;6289693;22;20188;-86
2023/04/04 12:30:28;;;;;;;1.40;1.30;;;6.60;1.00;;;;;;6289728;22;20181;-85
2023/04/04 12:32:56;;;;;;;1.77;1.40;;;;;;;;;;6291282;22;20212;-84
2023/04/04 12:35:23;;;;;;;6.25;2.10;;;;;;;;;;6288267;22;20275;-84
2023/04/04 12:38:06;;;;;;;2.88;1.80;;;7.20;99.90;;;;;;6291084;22;20283;-85
2023/04/04 12:40:36;;;;;;;1.80;1.33;;;6.90;99.90;;;;;;6290238;22;20164;-85
2023/04/04 12:43:04;;;;;;;1.45;1.10;;;;;;;;;;6288922;22;20294;-85
2023/04/04 12:45:32;;;;;;;2.10;1.42;;;7.30;1.00;;;;;;6290846;22;20226;-86
2023/04/04 12:47:59;;;;;;;2.10;1.30;;;6.80;1.00;;;;;;6288757;22;20176;-86
2023/04/04 12:50:28;;;;;;;1.80;1.45;;;7.10;99.90;;;;;;6288942;22;20179;-85
2023/04/04 12:52:55;;;;;;;1.38;1.27;;;;;;;;;;6291623;22;20178;-86
2023/04/04 12:55:23;;;;;;;2.30;1.42;;;6.90;99.90;;;;;;6289234;22;20228;-86
2023/04/04 12:57:51;;;;;;;2.97;1.77;;;6.70;1.00;;;;;;6287021;22;20182;-86
2023/04/04 13:00:21;;;;;;;2.53;1.67;;;6.80;1.00;;;;;;6288340;22;20185;-86
2023/04/04 13:02:51;;;;;;;5.20;1.55;;;6.60;1.00;;;;;;6288324;22;20166;-86
2023/04/04 13:05:20;;;;;;;1.20;1.20;;;6.40;1.00;;;;;;6290870;22;20227;-86
2023/04/04 13:07:48;;;;;;;1.42;1.30;;;6.50;1.00;;;;;;6294648;22;20204;-86
2023/04/04 13:10:16;;;;;;;2.50;1.00;;;6.30;1.00;;;;;;6293944;22;20186;-87
2023/04/04 13:13:02;;;;;;;1.80;1.70;;;7.10;1.00;;;;;;6291662;22;20180;-87
2023/04/04 13:15:48;;;;;;;4.03;2.30;;;7.30;1.00;;;;;;6291029;22;20201;-86
2023/04/04 13:18:19;;;;;;;1.52;1.42;;;7.30;1.00;;;;;;6288941;22;20179;-86
2023/04/04 13:20:47;;;;;;;1.55;1.10;;;7.10;1.00;;;;;;6287963;22;20229;-85
2023/04/04 13:23:14;;;;;;;2.15;1.70;;;;;;;;;;6285914;22;20234;-86
2023/04/04 13:25:41;;;;;;;3.45;1.58;;;8.10;99.90;;;;;;6285596;22;20197;-87
2023/04/04 13:28:10;;;;;;;1.60;1.50;;;;;;;;;;6285046;22;20214;-86
2023/04/04 13:30:38;;;;;;;3.30;1.25;;;;;;;;;;6284872;22;20191;-86
2023/04/04 13:33:05;;;;;;;2.88;1.35;;;;;;;;;;6285390;22;20179;-86
2023/04/04 13:35:34;;;;;;;1.98;1.77;;;7.20;99.90;;;;;;6288731;22;20262;-86
2023/04/04 13:38:01;;;;;;;1.70;1.60;;;;;;;;;;6300872;22;20187;-84
2023/04/04 13:40:28;;;;;;;2.58;1.52;;;;;;;;;;6301088;22;20203;-85
2023/04/04 13:42:55;;;;;;;5.03;1.20;;;;;;;;;;6301582;22;20210;-86
2023/04/04 13:45:22;;;;;;;2.17;1.30;;;;;;;;;;6295610;22;20543;-86
2023/04/04 13:47:50;;;;;;;2.15;1.33;;;;;;;;;;6286461;22;20286;-85
2023/04/04 13:50:17;;;;;;;3.25;1.73;;;;;;;;;;6290282;22;20200;-87
2023/04/04 13:52:45;;;;;;;1.35;1.25;;;7.50;99.90;;;;;;6288705;22;20176;-85
2023/04/04 13:55:16;;;;;;;3.78;1.80;;;7.80;1.00;;;;;;6290256;22;20200;-86
2023/04/04 13:57:44;;;;;;;2.65;2.05;;;;;;;;;;6295775;22;20156;-86
2023/04/04 14:00:12;;;;;;;2.10;1.85;;;;;;;;;;6288807;22;20259;-85
2023/04/04 14:02:39;;;;;;;2.35;1.42;;;7.80;1.00;;;;;;6295574;22;20217;-84
2023/04/04 14:05:06;;;;;;;1.57;1.47;;;;;;;;;;6286131;22;20272;-85
2023/04/04 14:07:33;;;;;;;4.80;1.60;;;7.70;1.00;;;;;;6282089;22;20407;-85
2023/04/04 14:10:02;;;;;;;1.55;1.40;;;;;;;;;;6281147;22;20176;-85
2023/04/04 14:12:29;;;;;;;1.10;1.00;;;;;;;;;;6282277;22;20175;-85
2023/04/04 14:14:56;;;;;;;9.88;1.80;;;6.90;1.00;;;;;;6280507;22;20477;-85
2023/04/04 14:17:23;;;;;;;5.53;3.58;;;7.20;1.00;;;;;;6283406;22;20210;-85
2023/04/04 14:19:50;;;;;;;2.90;1.50;;;;;;;;;;6282014;22;20250;-85
2023/04/04 14:22:17;;;;;;;2.47;1.60;;;;;;;;;;6295977;22;20182;-84
2023/04/04 14:24:44;;;;;;;1.88;1.42;;;;;;;;;;6303452;22;20186;-84
2023/04/04 14:27:13;;;;;;;2.00;1.30;;;7.40;1.00;;;;;;6298215;22;20176;-85
2023/04/04 14:29:50;;;;;;;2.65;1.63;;;7.40;1.00;;;;;;6286638;22;20209;-85
2023/04/04 14:32:18;;;;;;;1.75;1.65;;;;;;;;;;6283534;22;20168;-86
2023/04/04 14:34:47;;;;;;;2.30;1.50;;;;;;;;;;6281784;22;20255;-86
2023/04/04 14:37:16;;;;;;;1.67;1.50;;;;;;;;;;6283270;22;20170;-86
2023/04/04 14:39:44;;;;;;;5.32;2.97;;;;;;;;;;6284386;22;20493;-85
2023/04/04 14:42:12;;;;;;;4.32;2.88;;;;;;;;;;6283313;22;20225;-86
2023/04/04 14:44:42;;;;;;;1.60;1.50;;;;;;;;;;6282761;22;20233;-85
2023/04/04 14:47:10;;;;;;;1.40;1.30;;;;;;;;;;6285789;22;20243;-83
2023/04/04 14:49:37;;;;;;;3.75;1.60;;;;;;;;;;6285435;22;20629;-86
2023/04/04 14:52:04;;;;;;;1.60;1.20;;;7.00;99.90;;;;;;6296554;22;20174;-84
2023/04/04 14:54:31;;;;;;;2.22;1.70;;;;;;;;;;6282264;22;20770;-85
2023/04/04 14:56:59;;;;;;;2.83;1.48;;;;;;;;;;6282130;22;20223;-85